createdAt,value
2018-06-10T19:38:15.387Z,333.90
2018-06-10T19:40:46.908Z,266.60
2018-06-10T19:43:16.850Z,177.80
2018-06-10T19:45:45.904Z,122.57
2018-06-10T19:48:14.484Z,78.60
2018-06-10T19:50:43.198Z,59.13
2018-06-10T19:53:11.729Z,77.50
2018-06-10T19:55:40.558Z,69.37
2018-06-10T19:58:09.094Z,61.23
2018-06-10T20:00:37.820Z,49.27
2018-06-10T20:03:06.424Z,34.10
2018-06-10T20:05:35.327Z,29.43
2018-06-10T20:08:06.773Z,24.00
2018-06-10T20:10:35.408Z,18.47
2018-06-10T20:13:04.625Z,16.27
2018-06-10T20:15:32.838Z,14.43
2018-06-10T20:18:01.858Z,13.30
2018-06-10T20:20:30.490Z,12.13
2018-06-10T20:22:59.015Z,11.27
2018-06-10T20:25:27.658Z,12.30
2018-06-10T20:27:56.174Z,11.97
2018-06-10T20:30:24.802Z,10.60
2018-06-10T20:32:53.943Z,8.90
2018-06-10T20:35:22.552Z,8.77
2018-06-10T20:37:56.983Z,8.67
2018-06-10T20:40:26.301Z,8.87
2018-06-10T20:42:54.876Z,8.97
2018-06-10T20:45:23.785Z,9.10
2018-06-10T20:47:52.318Z,9.17
2018-06-10T20:50:20.886Z,9.30
2018-06-10T20:52:49.468Z,9.20
2018-06-10T20:55:18.020Z,9.57
2018-06-10T20:57:46.518Z,9.43
2018-06-10T21:00:15.208Z,9.10
2018-06-10T21:02:43.704Z,8.60
2018-06-10T21:05:12.306Z,9.53
2018-06-10T21:07:40.835Z,9.60
2018-06-10T21:10:09.664Z,9.73
2018-06-10T21:12:37.809Z,9.70
2018-06-10T21:15:06.621Z,8.87
2018-06-10T21:17:34.777Z,8.90
2018-06-10T21:20:03.658Z,8.80
2018-06-10T21:22:32.250Z,10.03
2018-06-10T21:25:01.109Z,8.60
2018-06-10T21:27:29.633Z,8.30
2018-06-10T21:29:58.137Z,9.83
2018-06-10T21:32:26.718Z,9.70
2018-06-10T21:34:55.494Z,9.03
2018-06-10T21:37:23.711Z,9.77
2018-06-10T21:39:52.245Z,9.47
2018-06-10T21:42:20.849Z,10.30
2018-06-10T21:44:49.406Z,9.17
2018-06-10T21:47:17.941Z,9.30
2018-06-10T21:49:46.537Z,9.10
2018-06-10T21:52:15.196Z,9.03
2018-06-10T21:54:44.003Z,9.33
2018-06-10T21:57:12.636Z,8.90
2018-06-10T21:59:42.641Z,8.80
2018-06-10T22:02:11.965Z,9.07
2018-06-10T22:04:40.525Z,9.43
2018-06-10T22:07:09.102Z,9.73
2018-06-10T22:09:37.589Z,9.10
2018-06-10T22:12:06.464Z,8.83
2018-06-10T22:14:35.097Z,9.43
2018-06-10T22:17:03.297Z,10.00
2018-06-10T22:19:31.810Z,9.97
2018-06-10T22:22:00.363Z,9.33
2018-06-10T22:24:28.855Z,9.80
2018-06-10T22:26:57.708Z,9.13
2018-06-10T22:29:26.235Z,14.03
2018-06-10T22:31:54.787Z,9.40
2018-06-10T22:34:23.345Z,11.20
2018-06-10T22:36:51.582Z,9.90
2018-06-10T22:39:20.260Z,8.77
2018-06-10T22:41:48.765Z,9.47
2018-06-10T22:44:17.730Z,8.30
2018-06-10T22:46:46.344Z,9.10
2018-06-10T22:49:14.893Z,8.30
2018-06-10T22:51:43.439Z,8.30
